Terminal Aerodrome Forecast
Issued by NWS

Home | Current Version | Previous Version | Text Only | Print | Product List | Glossary On
Versions: 1 2 3 4 5 6 7 8 9 10 11 12
152
FTUS45 KABQ 251739
TAFFMN
TAF
KFMN 251739Z 2518/2618 16007KT P6SM FEW200
     FM252000 21010KT P6SM FEW120
      TEMPO 2522/2601 21010G19KT
     FM260200 28006KT P6SM SCT120
     FM260800 08005KT P6SM SCT120
     FM261700 22008KT P6SM FEW120=

USA.gov is the U.S. government's official web portal to all federal, state and local government web resources and services.